sensor_id;sensor_type;location;lat;lon;timestamp;pressure;altitude;pressure_sealevel;temperature;humidity
82858;BME280;72620;47.774;9.620;2024-02-26T00:01:58;94470.41;;;4.68;70.43
82858;BME280;72620;47.774;9.620;2024-02-26T00:04:25;94475.03;;;4.73;69.94
82858;BME280;72620;47.774;9.620;2024-02-26T00:06:52;94466.75;;;4.71;71.47
82858;BME280;72620;47.774;9.620;2024-02-26T00:09:21;94478.03;;;4.68;71.46
82858;BME280;72620;47.774;9.620;2024-02-26T00:11:48;94476.78;;;4.72;68.68
82858;BME280;72620;47.774;9.620;2024-02-26T00:14:15;94476.78;;;4.72;68.68
82858;BME280;72620;47.774;9.620;2024-02-26T00:16:42;94475.97;;;4.72;67.58
82858;BME280;72620;47.774;9.620;2024-02-26T00:19:11;94467.41;;;4.73;67.90
82858;BME280;72620;47.774;9.620;2024-02-26T00:21:42;94475.31;;;4.78;66.92
82858;BME280;72620;47.774;9.620;2024-02-26T00:24:09;94467.56;;;4.79;66.48
82858;BME280;72620;47.774;9.620;2024-02-26T00:26:36;94465.66;;;4.81;67.13
82858;BME280;72620;47.774;9.620;2024-02-26T00:29:03;94464.84;;;4.81;67.47
82858;BME280;72620;47.774;9.620;2024-02-26T00:31:31;94464.53;;;4.84;67.73
82858;BME280;72620;47.774;9.620;2024-02-26T00:33:58;94472.00;;;4.85;66.71
82858;BME280;72620;47.774;9.620;2024-02-26T00:36:26;94465.16;;;4.86;66.79
82858;BME280;72620;47.774;9.620;2024-02-26T00:38:53;94462.78;;;4.84;67.72
82858;BME280;72620;47.774;9.620;2024-02-26T00:41:21;94469.75;;;4.82;69.72
82858;BME280;72620;47.774;9.620;2024-02-26T00:43:48;94469.75;;;4.82;69.72
82858;BME280;72620;47.774;9.620;2024-02-26T00:46:15;94468.50;;;4.78;67.96
82858;BME280;72620;47.774;9.620;2024-02-26T00:48:42;94467.06;;;4.76;68.41
82858;BME280;72620;47.774;9.620;2024-02-26T00:51:10;94456.91;;;4.76;68.92
82858;BME280;72620;47.774;9.620;2024-02-26T00:53:38;94451.00;;;4.75;70.04
82858;BME280;72620;47.774;9.620;2024-02-26T00:56:05;94443.56;;;4.74;68.65
82858;BME280;72620;47.774;9.620;2024-02-26T00:58:33;94444.06;;;4.77;69.31
82858;BME280;72620;47.774;9.620;2024-02-26T01:01:00;94431.97;;;4.79;68.31
82858;BME280;72620;47.774;9.620;2024-02-26T01:03:28;94436.25;;;4.79;69.17
82858;BME280;72620;47.774;9.620;2024-02-26T01:05:56;94432.75;;;4.80;68.81
82858;BME280;72620;47.774;9.620;2024-02-26T01:08:25;94433.56;;;4.80;69.29
82858;BME280;72620;47.774;9.620;2024-02-26T01:10:52;94434.19;;;4.74;69.90
82858;BME280;72620;47.774;9.620;2024-02-26T01:13:19;94425.78;;;4.74;69.88
82858;BME280;72620;47.774;9.620;2024-02-26T01:15:46;94425.78;;;4.74;69.88
82858;BME280;72620;47.774;9.620;2024-02-26T01:18:14;94422.75;;;4.62;71.91
82858;BME280;72620;47.774;9.620;2024-02-26T01:20:41;94421.00;;;4.71;72.51
82858;BME280;72620;47.774;9.620;2024-02-26T01:23:08;94427.69;;;4.72;69.96
82858;BME280;72620;47.774;9.620;2024-02-26T01:25:35;94421.31;;;4.76;69.82
82858;BME280;72620;47.774;9.620;2024-02-26T01:28:03;94417.03;;;4.76;69.68
82858;BME280;72620;47.774;9.620;2024-02-26T01:30:31;94417.50;;;4.80;70.29
82858;BME280;72620;47.774;9.620;2024-02-26T01:32:59;94418.31;;;4.80;70.90
82858;BME280;72620;47.774;9.620;2024-02-26T01:35:26;94414.19;;;4.79;70.24
82858;BME280;72620;47.774;9.620;2024-02-26T01:37:53;94416.72;;;4.79;69.98
82858;BME280;72620;47.774;9.620;2024-02-26T01:40:20;94403.06;;;4.80;70.51
82858;BME280;72620;47.774;9.620;2024-02-26T01:42:47;94411.31;;;4.82;70.90
82858;BME280;72620;47.774;9.620;2024-02-26T01:45:16;94404.03;;;4.79;68.19
82858;BME280;72620;47.774;9.620;2024-02-26T01:47:52;94410.84;;;4.79;69.97
82858;BME280;72620;47.774;9.620;2024-02-26T01:50:20;94417.34;;;4.81;69.80
82858;BME280;72620;47.774;9.620;2024-02-26T01:52:50;94420.69;;;4.82;70.44
82858;BME280;72620;47.774;9.620;2024-02-26T01:55:20;94418.94;;;4.82;68.76
82858;BME280;72620;47.774;9.620;2024-02-26T01:57:51;94419.25;;;4.87;69.13
82858;BME280;72620;47.774;9.620;2024-02-26T02:00:20;94410.34;;;4.91;68.67
82858;BME280;72620;47.774;9.620;2024-02-26T02:02:49;94411.16;;;4.92;69.07
82858;BME280;72620;47.774;9.620;2024-02-26T02:05:20;94407.66;;;4.93;69.36
82858;BME280;72620;47.774;9.620;2024-02-26T02:07:48;94410.34;;;4.91;70.34
82858;BME280;72620;47.774;9.620;2024-02-26T02:10:16;94405.75;;;4.95;69.21
82858;BME280;72620;47.774;9.620;2024-02-26T02:12:45;94411.28;;;4.98;72.42
82858;BME280;72620;47.774;9.620;2024-02-26T02:15:12;94405.25;;;4.99;68.81
82858;BME280;72620;47.774;9.620;2024-02-26T02:17:40;94407.66;;;4.93;71.64
82858;BME280;72620;47.774;9.620;2024-02-26T02:20:16;94408.78;;;4.90;69.00
82858;BME280;72620;47.774;9.620;2024-02-26T02:22:45;94409.56;;;4.91;69.51
82858;BME280;72620;47.774;9.620;2024-02-26T02:25:13;94405.25;;;4.91;68.11
82858;BME280;72620;47.774;9.620;2024-02-26T02:27:42;94407.34;;;4.88;69.63
82858;BME280;72620;47.774;9.620;2024-02-26T02:30:10;94420.06;;;4.88;71.21
82858;BME280;72620;47.774;9.620;2024-02-26T02:32:40;94423.53;;;4.87;73.14
82858;BME280;72620;47.774;9.620;2024-02-26T02:35:10;94428.78;;;4.85;74.66
82858;BME280;72620;47.774;9.620;2024-02-26T02:37:37;94427.84;;;4.86;72.03
82858;BME280;72620;47.774;9.620;2024-02-26T02:40:05;94426.41;;;4.84;69.07
82858;BME280;72620;47.774;9.620;2024-02-26T02:42:33;94426.41;;;4.84;69.07
82858;BME280;72620;47.774;9.620;2024-02-26T02:45:00;94424.16;;;4.89;70.72
82858;BME280;72620;47.774;9.620;2024-02-26T02:47:27;94430.69;;;4.91;69.55
82858;BME280;72620;47.774;9.620;2024-02-26T02:49:55;94423.38;;;4.96;68.28
82858;BME280;72620;47.774;9.620;2024-02-26T02:52:22;94424.16;;;4.97;69.85
82858;BME280;72620;47.774;9.620;2024-02-26T02:54:49;94424.16;;;4.97;69.85
82858;BME280;72620;47.774;9.620;2024-02-26T02:57:16;94428.13;;;4.99;70.05
82858;BME280;72620;47.774;9.620;2024-02-26T02:59:44;94438.44;;;4.98;70.72
82858;BME280;72620;47.774;9.620;2024-02-26T03:02:11;94432.44;;;4.99;68.66
82858;BME280;72620;47.774;9.620;2024-02-26T03:04:38;94430.19;;;5.04;64.42
82858;BME280;72620;47.774;9.620;2024-02-26T03:07:05;94436.38;;;5.09;66.40
82858;BME280;72620;47.774;9.620;2024-02-26T03:09:33;94439.22;;;5.14;63.16
82858;BME280;72620;47.774;9.620;2024-02-26T03:12:00;94443.03;;;5.19;65.44
82858;BME280;72620;47.774;9.620;2024-02-26T03:14:27;94447.00;;;5.21;66.43
82858;BME280;72620;47.774;9.620;2024-02-26T03:16:55;94451.47;;;5.19;64.48
82858;BME280;72620;47.774;9.620;2024-02-26T03:19:22;94452.88;;;5.22;63.53
82858;BME280;72620;47.774;9.620;2024-02-26T03:21:51;94452.53;;;5.25;68.87
82858;BME280;72620;47.774;9.620;2024-02-26T03:24:19;94441.88;;;5.29;65.54
82858;BME280;72620;47.774;9.620;2024-02-26T03:26:46;94444.91;;;5.33;64.23
82858;BME280;72620;47.774;9.620;2024-02-26T03:29:13;94451.88;;;5.39;62.31
82858;BME280;72620;47.774;9.620;2024-02-26T03:31:40;94450.31;;;5.38;68.97
82858;BME280;72620;47.774;9.620;2024-02-26T03:34:07;94456.34;;;5.37;65.86
82858;BME280;72620;47.774;9.620;2024-02-26T03:36:35;94456.34;;;5.37;65.86
82858;BME280;72620;47.774;9.620;2024-02-26T03:39:02;94449.50;;;5.29;68.33
82858;BME280;72620;47.774;9.620;2024-02-26T03:41:34;94450.00;;;5.33;66.94
82858;BME280;72620;47.774;9.620;2024-02-26T03:44:02;94462.41;;;5.36;65.67
82858;BME280;72620;47.774;9.620;2024-02-26T03:46:30;94463.03;;;5.38;64.67
82858;BME280;72620;47.774;9.620;2024-02-26T03:48:57;94457.78;;;5.39;63.57
82858;BME280;72620;47.774;9.620;2024-02-26T03:51:24;94451.41;;;5.43;63.02
82858;BME280;72620;47.774;9.620;2024-02-26T03:53:51;94449.97;;;5.49;63.62
82858;BME280;72620;47.774;9.620;2024-02-26T03:56:18;94446.44;;;5.50;64.83
82858;BME280;72620;47.774;9.620;2024-02-26T03:58:47;94436.25;;;5.50;67.81
82858;BME280;72620;47.774;9.620;2024-02-26T04:01:14;94425.94;;;5.51;63.27
82858;BME280;72620;47.774;9.620;2024-02-26T04:03:41;94420.69;;;5.53;62.16
82858;BME280;72620;47.774;9.620;2024-02-26T04:06:09;94420.69;;;5.53;62.16
82858;BME280;72620;47.774;9.620;2024-02-26T04:08:37;94422.59;;;5.51;62.40
82858;BME280;72620;47.774;9.620;2024-02-26T04:11:04;94411.44;;;5.52;63.31
82858;BME280;72620;47.774;9.620;2024-02-26T04:13:34;94399.41;;;5.46;63.63
82858;BME280;72620;47.774;9.620;2024-02-26T04:16:01;94400.50;;;5.43;63.97
82858;BME280;72620;47.774;9.620;2024-02-26T04:18:30;94407.06;;;5.38;64.79
82858;BME280;72620;47.774;9.620;2024-02-26T04:20:57;94413.28;;;5.35;63.88
82858;BME280;72620;47.774;9.620;2024-02-26T04:23:24;94413.28;;;5.35;63.88
82858;BME280;72620;47.774;9.620;2024-02-26T04:25:52;94402.63;;;5.32;65.02
82858;BME280;72620;47.774;9.620;2024-02-26T04:28:20;94406.75;;;5.25;65.27
82858;BME280;72620;47.774;9.620;2024-02-26T04:30:47;94405.19;;;5.24;65.32
82858;BME280;72620;47.774;9.620;2024-02-26T04:33:15;94391.06;;;5.21;66.30
82858;BME280;72620;47.774;9.620;2024-02-26T04:35:51;94390.75;;;5.16;66.27
82858;BME280;72620;47.774;9.620;2024-02-26T04:38:18;94381.06;;;5.11;65.99
82858;BME280;72620;47.774;9.620;2024-02-26T04:40:46;94400.16;;;5.07;67.04
82858;BME280;72620;47.774;9.620;2024-02-26T04:43:13;94403.97;;;5.03;66.83
82858;BME280;72620;47.774;9.620;2024-02-26T04:45:41;94413.97;;;5.05;67.36
82858;BME280;72620;47.774;9.620;2024-02-26T04:48:08;94412.41;;;5.04;67.25
82858;BME280;72620;47.774;9.620;2024-02-26T04:50:35;94405.72;;;5.03;67.62
82858;BME280;72620;47.774;9.620;2024-02-26T04:53:03;94409.22;;;5.02;67.31
82858;BME280;72620;47.774;9.620;2024-02-26T04:55:30;94412.22;;;5.05;67.48
82858;BME280;72620;47.774;9.620;2024-02-26T04:57:57;94402.50;;;5.09;68.18
82858;BME280;72620;47.774;9.620;2024-02-26T05:00:24;94399.69;;;5.04;68.89
82858;BME280;72620;47.774;9.620;2024-02-26T05:02:52;94405.53;;;5.04;68.40
82858;BME280;72620;47.774;9.620;2024-02-26T05:05:19;94414.31;;;5.02;69.04
82858;BME280;72620;47.774;9.620;2024-02-26T05:07:46;94414.63;;;4.99;68.72
82858;BME280;72620;47.774;9.620;2024-02-26T05:10:14;94422.44;;;4.97;69.08
82858;BME280;72620;47.774;9.620;2024-02-26T05:12:41;94435.44;;;4.94;69.58
82858;BME280;72620;47.774;9.620;2024-02-26T05:15:10;94440.56;;;4.86;70.68
82858;BME280;72620;47.774;9.620;2024-02-26T05:17:37;94448.81;;;4.88;70.11
82858;BME280;72620;47.774;9.620;2024-02-26T05:20:05;94452.28;;;4.87;70.70
82858;BME280;72620;47.774;9.620;2024-02-26T05:22:34;94456.44;;;4.88;71.45
82858;BME280;72620;47.774;9.620;2024-02-26T05:25:01;94458.34;;;4.86;71.52
82858;BME280;72620;47.774;9.620;2024-02-26T05:27:30;94462.47;;;4.87;72.17
82858;BME280;72620;47.774;9.620;2024-02-26T05:29:57;94464.38;;;4.85;72.79
82858;BME280;72620;47.774;9.620;2024-02-26T05:32:24;94469.63;;;4.84;72.30
82858;BME280;72620;47.774;9.620;2024-02-26T05:34:51;94456.59;;;4.79;72.78
82858;BME280;72620;47.774;9.620;2024-02-26T05:37:18;94459.13;;;4.79;73.01
82858;BME280;72620;47.774;9.620;2024-02-26T05:39:45;94455.94;;;4.69;72.65
82858;BME280;72620;47.774;9.620;2024-02-26T05:42:13;94457.38;;;4.63;72.72
82858;BME280;72620;47.774;9.620;2024-02-26T05:44:40;94458.03;;;4.57;73.26
82858;BME280;72620;47.774;9.620;2024-02-26T05:47:07;94456.28;;;4.50;73.34
82858;BME280;72620;47.774;9.620;2024-02-26T05:49:34;94464.66;;;4.42;73.43
82858;BME280;72620;47.774;9.620;2024-02-26T05:52:02;94475.47;;;4.36;73.68
82858;BME280;72620;47.774;9.620;2024-02-26T05:54:29;94497.34;;;4.29;74.71
82858;BME280;72620;47.774;9.620;2024-02-26T05:56:57;94496.53;;;4.20;74.90
82858;BME280;72620;47.774;9.620;2024-02-26T05:59:24;94499.88;;;4.21;74.57
82858;BME280;72620;47.774;9.620;2024-02-26T06:01:52;94492.91;;;4.23;74.88
82858;BME280;72620;47.774;9.620;2024-02-26T06:04:19;94489.09;;;4.27;74.54
82858;BME280;72620;47.774;9.620;2024-02-26T06:06:46;94486.72;;;4.33;73.82
82858;BME280;72620;47.774;9.620;2024-02-26T06:09:13;94495.47;;;4.39;74.55
82858;BME280;72620;47.774;9.620;2024-02-26T06:11:41;94488.16;;;4.44;74.25
82858;BME280;72620;47.774;9.620;2024-02-26T06:14:08;94484.84;;;4.52;73.77
82858;BME280;72620;47.774;9.620;2024-02-26T06:16:36;94498.03;;;4.47;74.40
82858;BME280;72620;47.774;9.620;2024-02-26T06:19:03;94498.97;;;4.46;75.70
82858;BME280;72620;47.774;9.620;2024-02-26T06:21:31;94506.56;;;4.46;75.21
82858;BME280;72620;47.774;9.620;2024-02-26T06:23:58;94505.47;;;4.49;74.64
82858;BME280;72620;47.774;9.620;2024-02-26T06:26:26;94505.47;;;4.49;74.64
82858;BME280;72620;47.774;9.620;2024-02-26T06:28:55;94500.09;;;4.52;75.77
82858;BME280;72620;47.774;9.620;2024-02-26T06:31:23;94512.31;;;4.56;75.23
82858;BME280;72620;47.774;9.620;2024-02-26T06:33:50;94516.94;;;4.53;74.38
82858;BME280;72620;47.774;9.620;2024-02-26T06:36:17;94532.00;;;4.54;74.79
82858;BME280;72620;47.774;9.620;2024-02-26T06:38:44;94539.63;;;4.54;75.88
82858;BME280;72620;47.774;9.620;2024-02-26T06:41:12;94545.34;;;4.56;74.95
82858;BME280;72620;47.774;9.620;2024-02-26T06:43:39;94542.34;;;4.61;74.99
82858;BME280;72620;47.774;9.620;2024-02-26T06:46:06;94548.84;;;4.63;74.51
82858;BME280;72620;47.774;9.620;2024-02-26T06:48:34;94545.84;;;4.68;75.12
82858;BME280;72620;47.774;9.620;2024-02-26T06:51:03;94545.84;;;4.68;75.12
82858;BME280;72620;47.774;9.620;2024-02-26T06:53:31;94560.00;;;4.78;74.05
82858;BME280;72620;47.774;9.620;2024-02-26T06:55:58;94565.72;;;4.80;73.88
82858;BME280;72620;47.774;9.620;2024-02-26T06:58:25;94574.78;;;4.83;73.66
82858;BME280;72620;47.774;9.620;2024-02-26T07:00:52;94577.66;;;4.88;73.72
82858;BME280;72620;47.774;9.620;2024-02-26T07:03:20;94582.56;;;4.89;73.40
82858;BME280;72620;47.774;9.620;2024-02-26T07:05:49;94577.97;;;4.93;73.49
82858;BME280;72620;47.774;9.620;2024-02-26T07:08:17;94572.41;;;4.97;73.51
82858;BME280;72620;47.774;9.620;2024-02-26T07:10:45;94578.78;;;5.01;73.17
82858;BME280;72620;47.774;9.620;2024-02-26T07:13:13;94588.94;;;5.09;73.31
82858;BME280;72620;47.774;9.620;2024-02-26T07:15:40;94592.44;;;5.17;72.88
82858;BME280;72620;47.774;9.620;2024-02-26T07:18:07;94591.03;;;5.22;72.56
82858;BME280;72620;47.774;9.620;2024-02-26T07:20:34;94591.03;;;5.22;72.56
82858;BME280;72620;47.774;9.620;2024-02-26T07:23:01;94584.66;;;5.34;73.00
82858;BME280;72620;47.774;9.620;2024-02-26T07:25:29;94582.88;;;5.43;71.57
82858;BME280;72620;47.774;9.620;2024-02-26T07:27:56;94584.34;;;5.53;71.53
82858;BME280;72620;47.774;9.620;2024-02-26T07:30:24;94574.09;;;5.69;69.08
82858;BME280;72620;47.774;9.620;2024-02-26T07:32:51;94572.81;;;5.81;70.26
82858;BME280;72620;47.774;9.620;2024-02-26T07:35:20;94569.78;;;6.02;70.29
82858;BME280;72620;47.774;9.620;2024-02-26T07:37:48;94578.75;;;6.29;68.80
82858;BME280;72620;47.774;9.620;2024-02-26T07:40:18;94570.34;;;6.51;68.40
82858;BME280;72620;47.774;9.620;2024-02-26T07:42:45;94567.91;;;6.66;73.55
82858;BME280;72620;47.774;9.620;2024-02-26T07:45:12;94566.16;;;6.89;67.34
82858;BME280;72620;47.774;9.620;2024-02-26T07:47:42;94565.41;;;7.03;65.45
82858;BME280;72620;47.774;9.620;2024-02-26T07:50:10;94571.88;;;7.13;64.09
82858;BME280;72620;47.774;9.620;2024-02-26T07:52:39;94566.97;;;7.26;64.21
82858;BME280;72620;47.774;9.620;2024-02-26T07:55:07;94568.06;;;7.32;63.94
82858;BME280;72620;47.774;9.620;2024-02-26T07:57:34;94563.75;;;7.32;63.58
82858;BME280;72620;47.774;9.620;2024-02-26T08:00:03;94567.34;;;7.23;63.53
82858;BME280;72620;47.774;9.620;2024-02-26T08:02:31;94567.97;;;7.25;64.51
82858;BME280;72620;47.774;9.620;2024-02-26T08:04:58;94558.28;;;7.36;62.91
82858;BME280;72620;47.774;9.620;2024-02-26T08:07:25;94559.56;;;7.54;63.28
82858;BME280;72620;47.774;9.620;2024-02-26T08:09:52;94560.31;;;7.92;60.92
82858;BME280;72620;47.774;9.620;2024-02-26T08:12:20;94556.06;;;8.57;59.92
82858;BME280;72620;47.774;9.620;2024-02-26T08:14:47;94552.16;;;8.76;59.42
82858;BME280;72620;47.774;9.620;2024-02-26T08:17:14;94553.94;;;8.61;59.16
82858;BME280;72620;47.774;9.620;2024-02-26T08:19:42;94553.22;;;8.31;60.31
82858;BME280;72620;47.774;9.620;2024-02-26T08:22:09;94552.41;;;8.01;59.99
82858;BME280;72620;47.774;9.620;2024-02-26T08:24:42;94554.84;;;7.80;62.10
82858;BME280;72620;47.774;9.620;2024-02-26T08:27:10;94556.16;;;7.76;61.48
82858;BME280;72620;47.774;9.620;2024-02-26T08:29:37;94555.97;;;7.63;61.28
82858;BME280;72620;47.774;9.620;2024-02-26T08:32:04;94555.59;;;7.52;62.59
82858;BME280;72620;47.774;9.620;2024-02-26T08:34:33;94553.13;;;7.44;63.39
82858;BME280;72620;47.774;9.620;2024-02-26T08:37:00;94548.13;;;7.50;63.71
82858;BME280;72620;47.774;9.620;2024-02-26T08:39:28;94551.31;;;7.67;63.81
82858;BME280;72620;47.774;9.620;2024-02-26T08:41:55;94554.34;;;7.99;62.29
82858;BME280;72620;47.774;9.620;2024-02-26T08:44:22;94554.84;;;8.24;62.50
82858;BME280;72620;47.774;9.620;2024-02-26T08:46:49;94557.00;;;8.35;61.30
82858;BME280;72620;47.774;9.620;2024-02-26T08:49:17;94559.50;;;8.50;60.24
82858;BME280;72620;47.774;9.620;2024-02-26T08:51:45;94556.09;;;8.79;59.73
82858;BME280;72620;47.774;9.620;2024-02-26T08:54:12;94559.69;;;8.84;59.70
82858;BME280;72620;47.774;9.620;2024-02-26T08:56:39;94559.03;;;8.75;60.15
82858;BME280;72620;47.774;9.620;2024-02-26T08:59:06;94559.50;;;8.64;60.17
82858;BME280;72620;47.774;9.620;2024-02-26T09:01:34;94552.53;;;8.58;61.91
82858;BME280;72620;47.774;9.620;2024-02-26T09:04:01;94549.69;;;9.10;60.42
82858;BME280;72620;47.774;9.620;2024-02-26T09:06:28;94556.44;;;9.88;56.96
82858;BME280;72620;47.774;9.620;2024-02-26T09:08:56;94557.63;;;10.19;56.90
82858;BME280;72620;47.774;9.620;2024-02-26T09:11:27;94550.25;;;11.18;53.84
82858;BME280;72620;47.774;9.620;2024-02-26T09:13:54;94546.84;;;12.15;52.30
82858;BME280;72620;47.774;9.620;2024-02-26T09:16:21;94543.06;;;12.69;49.29
82858;BME280;72620;47.774;9.620;2024-02-26T09:18:48;94546.41;;;12.76;48.90
82858;BME280;72620;47.774;9.620;2024-02-26T09:21:16;94561.00;;;12.44;51.06
82858;BME280;72620;47.774;9.620;2024-02-26T09:23:50;94563.34;;;12.52;51.62
82858;BME280;72620;47.774;9.620;2024-02-26T09:26:18;94561.06;;;12.82;49.82
82858;BME280;72620;47.774;9.620;2024-02-26T09:28:45;94555.72;;;13.95;46.87
82858;BME280;72620;47.774;9.620;2024-02-26T09:31:12;94562.13;;;14.83;44.97
82858;BME280;72620;47.774;9.620;2024-02-26T09:33:42;94552.50;;;15.61;42.32
82858;BME280;72620;47.774;9.620;2024-02-26T09:36:10;94560.16;;;16.14;41.63
82858;BME280;72620;47.774;9.620;2024-02-26T09:38:38;94569.53;;;16.04;41.72
82858;BME280;72620;47.774;9.620;2024-02-26T09:41:21;94572.97;;;14.74;43.82
82858;BME280;72620;47.774;9.620;2024-02-26T09:43:56;94581.63;;;13.26;47.30
82858;BME280;72620;47.774;9.620;2024-02-26T09:46:25;94586.75;;;12.31;49.56
82858;BME280;72620;47.774;9.620;2024-02-26T09:48:53;94583.69;;;11.77;52.47
82858;BME280;72620;47.774;9.620;2024-02-26T09:51:22;94586.03;;;11.52;52.64
82858;BME280;72620;47.774;9.620;2024-02-26T09:53:53;94587.38;;;11.35;52.77
82858;BME280;72620;47.774;9.620;2024-02-26T09:56:21;94572.13;;;11.01;52.90
82858;BME280;72620;47.774;9.620;2024-02-26T09:58:51;94573.81;;;10.74;55.33
82858;BME280;72620;47.774;9.620;2024-02-26T10:01:21;94576.16;;;10.62;56.65
82858;BME280;72620;47.774;9.620;2024-02-26T10:03:55;94570.81;;;10.57;55.77
82858;BME280;72620;47.774;9.620;2024-02-26T10:06:27;94581.44;;;10.54;56.99
82858;BME280;72620;47.774;9.620;2024-02-26T10:08:56;94585.69;;;10.34;58.01
82858;BME280;72620;47.774;9.620;2024-02-26T10:11:26;94581.44;;;10.54;56.88
82858;BME280;72620;47.774;9.620;2024-02-26T10:13:54;94587.38;;;10.55;56.87
82858;BME280;72620;47.774;9.620;2024-02-26T10:16:22;94581.03;;;10.44;56.09
82858;BME280;72620;47.774;9.620;2024-02-26T10:18:53;94566.81;;;10.48;57.29
82858;BME280;72620;47.774;9.620;2024-02-26T10:21:26;94576.09;;;10.49;56.84
82858;BME280;72620;47.774;9.620;2024-02-26T10:23:53;94585.00;;;10.53;57.32
82858;BME280;72620;47.774;9.620;2024-02-26T10:26:21;94579.44;;;10.50;57.25
82858;BME280;72620;47.774;9.620;2024-02-26T10:28:49;94584.19;;;10.46;57.72
82858;BME280;72620;47.774;9.620;2024-02-26T10:31:21;94588.31;;;10.47;56.84
82858;BME280;72620;47.774;9.620;2024-02-26T10:33:48;94592.22;;;10.37;59.68
82858;BME280;72620;47.774;9.620;2024-02-26T10:36:16;94599.16;;;10.43;58.78
82858;BME280;72620;47.774;9.620;2024-02-26T10:38:43;94596.25;;;10.52;57.60
82858;BME280;72620;47.774;9.620;2024-02-26T10:41:13;94592.50;;;10.55;56.55
82858;BME280;72620;47.774;9.620;2024-02-26T10:43:44;94592.94;;;10.65;57.83
82858;BME280;72620;47.774;9.620;2024-02-26T10:46:11;94591.78;;;10.74;56.11
82858;BME280;72620;47.774;9.620;2024-02-26T10:48:38;94596.00;;;10.94;57.58
82858;BME280;72620;47.774;9.620;2024-02-26T10:51:11;94601.00;;;11.16;55.84
82858;BME280;72620;47.774;9.620;2024-02-26T10:53:44;94594.69;;;11.25;55.39
82858;BME280;72620;47.774;9.620;2024-02-26T10:56:15;94591.94;;;11.39;54.82
82858;BME280;72620;47.774;9.620;2024-02-26T10:58:45;94594.72;;;11.51;55.97
82858;BME280;72620;47.774;9.620;2024-02-26T11:01:13;94596.56;;;11.70;57.19
82858;BME280;72620;47.774;9.620;2024-02-26T11:03:42;94587.44;;;11.81;55.18
82858;BME280;72620;47.774;9.620;2024-02-26T11:06:12;94589.00;;;11.88;54.62
82858;BME280;72620;47.774;9.620;2024-02-26T11:08:40;94593.19;;;11.83;55.47
82858;BME280;72620;47.774;9.620;2024-02-26T11:11:08;94599.88;;;11.77;56.21
82858;BME280;72620;47.774;9.620;2024-02-26T11:13:38;94604.44;;;11.88;55.95
82858;BME280;72620;47.774;9.620;2024-02-26T11:16:11;94599.91;;;11.90;55.05
82858;BME280;72620;47.774;9.620;2024-02-26T11:18:40;94597.72;;;11.94;55.86
82858;BME280;72620;47.774;9.620;2024-02-26T11:21:11;94597.13;;;11.92;56.82
82858;BME280;72620;47.774;9.620;2024-02-26T11:23:42;94603.06;;;11.92;55.51
82858;BME280;72620;47.774;9.620;2024-02-26T11:26:11;94598.31;;;11.89;54.67
82858;BME280;72620;47.774;9.620;2024-02-26T11:28:44;94604.25;;;11.90;55.45
82858;BME280;72620;47.774;9.620;2024-02-26T11:31:12;94601.47;;;11.91;55.05
82858;BME280;72620;47.774;9.620;2024-02-26T11:33:41;94601.84;;;11.88;56.54
82858;BME280;72620;47.774;9.620;2024-02-26T11:36:10;94597.13;;;11.85;54.41
82858;BME280;72620;47.774;9.620;2024-02-26T11:38:40;94600.28;;;11.87;54.09
82858;BME280;72620;47.774;9.620;2024-02-26T11:41:07;94605.44;;;11.81;54.84
82858;BME280;72620;47.774;9.620;2024-02-26T11:44:01;94605.03;;;11.84;54.91
82858;BME280;72620;47.774;9.620;2024-02-26T11:46:29;94595.53;;;11.84;55.97
82858;BME280;72620;47.774;9.620;2024-02-26T11:49:03;94599.88;;;11.84;54.76
82858;BME280;72620;47.774;9.620;2024-02-26T11:51:52;94597.53;;;11.82;53.91
82858;BME280;72620;47.774;9.620;2024-02-26T11:57:24;94593.16;;;11.63;54.94
82858;BME280;72620;47.774;9.620;2024-02-26T12:00:10;94594.34;;;11.60;55.69
82858;BME280;72620;47.774;9.620;2024-02-26T12:05:15;94602.44;;;11.57;55.73
82858;BME280;72620;47.774;9.620;2024-02-26T12:07:49;94602.81;;;11.54;56.79
82858;BME280;72620;47.774;9.620;2024-02-26T12:10:38;94605.19;;;11.49;56.40
82858;BME280;72620;47.774;9.620;2024-02-26T12:13:13;94608.94;;;11.40;57.96
82858;BME280;72620;47.774;9.620;2024-02-26T12:15:58;94593.72;;;11.39;59.06
82858;BME280;72620;47.774;9.620;2024-02-26T12:18:26;94601.03;;;11.35;59.54
82858;BME280;72620;47.774;9.620;2024-02-26T12:21:03;94610.13;;;11.31;57.84
82858;BME280;72620;47.774;9.620;2024-02-26T12:23:31;94599.41;;;11.28;59.29
82858;BME280;72620;47.774;9.620;2024-02-26T12:25:59;94596.09;;;11.27;59.13
82858;BME280;72620;47.774;9.620;2024-02-26T12:28:30;94592.31;;;11.30;59.85
82858;BME280;72620;47.774;9.620;2024-02-26T12:30:59;94613.66;;;11.43;60.97
82858;BME280;72620;47.774;9.620;2024-02-26T12:33:28;94614.69;;;11.49;59.78
82858;BME280;72620;47.774;9.620;2024-02-26T12:35:58;94613.28;;;11.46;58.07
82858;BME280;72620;47.774;9.620;2024-02-26T12:38:27;94615.47;;;11.49;59.53
82858;BME280;72620;47.774;9.620;2024-02-26T12:40:54;94611.31;;;11.61;60.82
82858;BME280;72620;47.774;9.620;2024-02-26T12:43:22;94625.19;;;11.80;50.81
82858;BME280;72620;47.774;9.620;2024-02-26T12:45:49;94616.50;;;11.94;55.16
82858;BME280;72620;47.774;9.620;2024-02-26T12:48:17;94623.59;;;12.12;53.08
82858;BME280;72620;47.774;9.620;2024-02-26T12:50:45;94619.22;;;12.32;51.65
82858;BME280;72620;47.774;9.620;2024-02-26T12:53:17;94624.50;;;12.57;50.13
82858;BME280;72620;47.774;9.620;2024-02-26T12:55:45;94620.91;;;12.71;49.04
82858;BME280;72620;47.774;9.620;2024-02-26T12:58:14;94625.78;;;12.85;48.54
82858;BME280;72620;47.774;9.620;2024-02-26T13:00:42;94630.09;;;12.98;47.00
82858;BME280;72620;47.774;9.620;2024-02-26T13:03:09;94623.56;;;13.08;47.80
82858;BME280;72620;47.774;9.620;2024-02-26T13:05:37;94625.28;;;13.15;49.46
82858;BME280;72620;47.774;9.620;2024-02-26T13:08:05;94631.22;;;13.22;47.61
82858;BME280;72620;47.774;9.620;2024-02-26T13:10:35;94614.13;;;13.27;45.40
82858;BME280;72620;47.774;9.620;2024-02-26T13:13:02;94616.69;;;13.34;45.12
82858;BME280;72620;47.774;9.620;2024-02-26T13:15:30;94611.34;;;13.29;44.47
82858;BME280;72620;47.774;9.620;2024-02-26T13:18:09;94613.72;;;13.30;45.06
82858;BME280;72620;47.774;9.620;2024-02-26T13:20:38;94618.47;;;13.33;44.31